Time;durP1;ratioP1;P1;durP2;ratioP2;P2;SDS_P1;SDS_P2;PMS_P1;PMS_P2;Temp;Humidity;BMP_temperature;BMP_pressure;BME280_temperature;BME280_humidity;BME280_pressure;Samples;Min_cycle;Max_cycle;Signal;HPM_P1;HPM_P2
2023/02/13 00:01:37;;;;;;;1999.90;999.90;;;3.40;99.90;;;;;;5093172;28;20058;-81
2023/02/13 00:04:03;;;;;;;1999.90;999.90;;;3.30;99.90;;;;;;5093268;28;20073;-73
2023/02/13 00:06:29;;;;;;;1999.90;999.90;;;3.30;99.90;;;;;;5092891;28;20028;-73
2023/02/13 00:08:55;;;;;;;1999.90;999.90;;;3.30;99.90;;;;;;5092795;28;20032;-73
2023/02/13 00:11:20;;;;;;;1999.90;999.90;;;3.30;99.90;;;;;;5092893;28;20016;-81
2023/02/13 00:13:46;;;;;;;1999.90;999.90;;;3.30;99.90;;;;;;5092405;28;20120;-81
2023/02/13 00:16:12;;;;;;;1999.90;999.90;;;3.30;99.90;;;;;;5092232;28;20024;-73
2023/02/13 00:18:38;;;;;;;1999.90;999.90;;;3.30;99.90;;;;;;5092739;28;20039;-72
2023/02/13 00:21:06;;;;;;;1999.90;999.90;;;3.30;99.90;;;;;;5092498;28;20031;-73
2023/02/13 00:23:33;;;;;;;1999.90;999.90;;;3.30;99.90;;;;;;5092768;28;20085;-72
2023/02/13 00:26:00;;;;;;;1999.90;999.90;;;3.30;99.90;;;;;;5092996;28;20027;-73
2023/02/13 00:28:26;;;;;;;1999.90;999.90;;;3.30;99.90;;;;;;5092445;28;20029;-81
2023/02/13 00:30:52;;;;;;;1999.90;999.90;;;3.40;99.90;;;;;;5085762;28;20020;-73
2023/02/13 00:33:17;;;;;;;1999.90;999.90;;;3.30;99.90;;;;;;5072424;28;20028;-73
2023/02/13 00:35:43;;;;;;;1999.90;999.90;;;3.30;99.90;;;;;;5072357;28;20029;-73
2023/02/13 00:38:09;;;;;;;1999.90;999.90;;;3.30;99.90;;;;;;5082408;28;20032;-81
2023/02/13 00:40:34;;;;;;;1999.90;999.90;;;3.20;99.90;;;;;;5092417;28;20043;-81
2023/02/13 00:43:00;;;;;;;1999.90;999.90;;;3.20;99.90;;;;;;5092488;28;20515;-73
2023/02/13 00:45:25;;;;;;;1999.90;999.90;;;3.10;99.90;;;;;;5092208;28;20111;-73
2023/02/13 00:47:51;;;;;;;1999.90;999.90;;;3.10;99.90;;;;;;5092697;28;20034;-73
2023/02/13 00:50:17;;;;;;;1999.90;999.90;;;3.10;99.90;;;;;;5091090;28;20448;-81
2023/02/13 00:52:42;;;;;;;1999.90;999.90;;;3.00;99.90;;;;;;5092237;28;20031;-73
2023/02/13 00:55:08;;;;;;;1999.90;999.90;;;3.00;99.90;;;;;;5091119;28;20077;-73
2023/02/13 00:57:34;;;;;;;1999.90;999.90;;;3.00;99.90;;;;;;5087448;28;20041;-72
2023/02/13 00:59:59;;;;;;;1999.90;999.90;;;2.90;99.90;;;;;;5091364;28;20028;-73
2023/02/13 01:02:25;;;;;;;1999.90;999.90;;;2.80;99.90;;;;;;5091125;28;20043;-73
2023/02/13 01:04:50;;;;;;;1999.90;999.90;;;2.80;99.90;;;;;;5092080;28;20021;-81
2023/02/13 01:07:16;;;;;;;1999.90;999.90;;;2.70;99.90;;;;;;5092763;28;20036;-72
2023/02/13 01:09:42;;;;;;;1999.90;999.90;;;2.70;99.90;;;;;;5092338;28;20066;-72
2023/02/13 01:12:08;;;;;;;1999.90;999.90;;;2.70;99.90;;;;;;5092176;28;20387;-73
2023/02/13 01:14:34;;;;;;;1999.90;999.90;;;2.60;99.90;;;;;;5091451;28;20020;-73
2023/02/13 01:17:00;;;;;;;1999.90;999.90;;;2.60;99.90;;;;;;5091442;28;20036;-73
2023/02/13 01:19:25;;;;;;;1999.90;999.90;;;2.60;99.90;;;;;;5092302;28;20020;-82
2023/02/13 01:21:51;;;;;;;1999.90;999.90;;;2.50;99.90;;;;;;5091236;28;20032;-73
2023/02/13 01:24:16;;;;;;;1999.90;999.90;;;2.50;99.90;;;;;;5092211;28;20031;-72
2023/02/13 01:26:42;;;;;;;1999.90;999.90;;;2.50;99.90;;;;;;5091935;28;20098;-73
2023/02/13 01:29:11;;;;;;;1999.90;999.90;;;2.40;99.90;;;;;;5094651;28;20020;-80
2023/02/13 01:31:37;;;;;;;1999.90;999.90;;;2.40;99.90;;;;;;5074368;28;20484;-81
2023/02/13 01:34:02;;;;;;;1999.90;999.90;;;2.30;99.90;;;;;;5076492;28;20025;-73
2023/02/13 01:36:28;;;;;;;1999.90;999.90;;;2.30;99.90;;;;;;5075868;28;20032;-73
2023/02/13 01:38:55;;;;;;;1999.90;999.90;;;2.20;99.90;;;;;;5092188;28;20016;-73
2023/02/13 01:41:22;;;;;;;1999.90;999.90;;;2.20;99.90;;;;;;5095656;28;20412;-73
2023/02/13 01:43:52;;;;;;;1999.90;999.90;;;2.10;99.90;;;;;;5097005;28;20035;-81
2023/02/13 01:46:27;;;;;;;1999.90;999.90;;;2.10;99.90;;;;;;5096844;28;20043;-81
2023/02/13 01:48:57;;;;;;;1999.90;999.90;;;2.00;99.90;;;;;;5094573;28;20066;-73
2023/02/13 01:51:28;;;;;;;1999.90;999.90;;;2.10;99.90;;;;;;5094128;28;20024;-73
2023/02/13 01:54:12;;;;;;;1999.90;999.90;;;2.00;99.90;;;;;;5095733;28;20021;-73
2023/02/13 01:56:42;;;;;;;1999.90;999.90;;;2.00;99.90;;;;;;5096218;28;20364;-82
2023/02/13 01:59:13;;;;;;;1999.90;999.90;;;1.90;99.90;;;;;;5096275;28;20032;-81
2023/02/13 02:01:40;;;;;;;1999.90;999.90;;;1.90;99.90;;;;;;5095607;28;20054;-72
2023/02/13 02:04:05;;;;;;;1999.90;999.90;;;1.90;99.90;;;;;;5095541;28;20021;-73
2023/02/13 02:06:35;;;;;;;1999.90;999.90;;;1.80;99.90;;;;;;5095751;28;20035;-72
2023/02/13 02:09:07;;;;;;;1999.90;999.90;;;1.80;99.90;;;;;;5095714;28;20028;-73
2023/02/13 02:11:45;;;;;;;1999.90;999.90;;;1.80;99.90;;;;;;5096103;28;20016;-82
2023/02/13 02:14:11;;;;;;;1999.90;999.90;;;1.80;99.90;;;;;;5095689;28;20056;-73
2023/02/13 02:16:36;;;;;;;1999.90;999.90;;;1.90;99.90;;;;;;5094428;28;20055;-73
2023/02/13 02:19:06;;;;;;;1999.90;999.90;;;1.90;99.90;;;;;;5094957;28;20463;-73
2023/02/13 02:22:02;;;;;;;1999.90;999.90;;;1.90;99.90;;;;;;5095266;28;20016;-82
2023/02/13 02:24:46;;;;;;;1999.90;999.90;;;2.00;99.90;;;;;;5095615;28;20027;-81
2023/02/13 02:27:17;;;;;;;1999.90;999.90;;;2.00;99.90;;;;;;5094741;28;20480;-73
2023/02/13 02:30:22;;;;;;;1999.90;999.90;;;2.00;99.90;;;;;;5094843;28;20028;-73
2023/02/13 02:33:17;;;;;;;1999.90;999.90;;;2.00;99.90;;;;;;5067353;28;20016;-73
2023/02/13 02:36:15;;;;;;;1999.90;999.90;;;2.00;99.90;;;;;;5071116;28;20033;-82
2023/02/13 02:39:02;;;;;;;1999.90;999.90;;;2.00;99.90;;;;;;5060227;28;20085;-81
2023/02/13 02:41:49;;;;;;;1999.90;999.90;;;2.00;99.90;;;;;;5094100;28;20020;-73
2023/02/13 02:44:41;;;;;;;1999.90;999.90;;;2.10;99.90;;;;;;5095723;28;20021;-73
2023/02/13 02:50:50;;;;;;;1999.90;999.90;;;2.10;99.90;;;;;;5074821;28;20098;-80
2023/02/13 02:53:40;;;;;;;1999.90;999.90;;;2.30;99.90;;;;;;5093415;28;20024;-73
2023/02/13 02:56:36;;;;;;;1999.90;999.90;;;2.30;99.90;;;;;;5094761;28;20028;-73
2023/02/13 03:07:31;;;;;;;1999.90;999.90;;;2.40;99.90;;;;;;5094670;28;20038;-73
2023/02/13 03:13:19;;;;;;;1999.90;999.90;;;2.50;99.90;;;;;;5094052;28;20074;-73
2023/02/13 03:24:30;;;;;;;1999.90;999.90;;;2.60;99.90;;;;;;5094210;28;20113;-73
2023/02/13 03:27:15;;;;;;;1999.90;999.90;;;2.50;99.90;;;;;;5093652;28;20515;-81
2023/02/13 03:30:06;;;;;;;1999.90;999.90;;;2.50;99.90;;;;;;5093669;28;20024;-81
2023/02/13 03:32:41;;;;;;;1999.90;999.90;;;2.40;99.90;;;;;;5073530;28;20016;-73
2023/02/13 03:38:21;;;;;;;1999.90;999.90;;;2.20;99.90;;;;;;5085189;28;20132;-81
2023/02/13 03:41:17;;;;;;;1999.90;999.90;;;2.20;99.90;;;;;;5093483;28;20036;-72
2023/02/13 03:44:08;;;;;;;1999.90;999.90;;;2.10;99.90;;;;;;5093684;28;20024;-79
2023/02/13 03:46:37;;;;;;;1999.90;999.90;;;2.10;99.90;;;;;;5095881;28;20052;-73
2023/02/13 03:52:30;;;;;;;1999.90;999.90;;;2.10;99.90;;;;;;5113795;28;20118;-73
2023/02/13 04:00:38;;;;;;;1999.90;999.90;;;2.10;99.90;;;;;;5114075;28;20034;-81
2023/02/13 04:03:26;;;;;;;1999.90;999.90;;;2.10;99.90;;;;;;5113559;28;20480;-72
2023/02/13 04:06:15;;;;;;;1999.90;999.90;;;2.10;99.90;;;;;;5113427;28;20038;-73
2023/02/13 04:08:41;;;;;;;1999.90;999.90;;;2.10;99.90;;;;;;5112529;28;20050;-81
2023/02/13 04:11:36;;;;;;;1999.90;999.90;;;2.00;99.90;;;;;;5113177;28;20062;-73
2023/02/13 04:14:20;;;;;;;1999.90;999.90;;;2.00;99.90;;;;;;5108410;28;20032;-73
2023/02/13 04:16:50;;;;;;;1999.90;999.90;;;2.00;99.90;;;;;;5112581;28;20020;-73
2023/02/13 04:19:16;;;;;;;1999.90;999.90;;;2.00;99.90;;;;;;5113134;28;20031;-82
2023/02/13 04:21:42;;;;;;;1999.90;999.90;;;1.90;99.90;;;;;;5113036;28;20560;-81
2023/02/13 04:24:08;;;;;;;1999.90;999.90;;;1.90;99.90;;;;;;5113438;28;20103;-73
2023/02/13 04:26:37;;;;;;;1999.90;999.90;;;1.90;99.90;;;;;;5113225;28;20020;-73
2023/02/13 04:29:03;;;;;;;1999.90;999.90;;;1.90;99.90;;;;;;5112905;28;20090;-73
2023/02/13 04:31:29;;;;;;;1999.90;999.90;;;1.90;99.90;;;;;;5088979;28;20150;-80
2023/02/13 04:33:54;;;;;;;1999.90;999.90;;;1.90;99.90;;;;;;5073002;28;20485;-81
2023/02/13 04:36:20;;;;;;;1999.90;999.90;;;1.90;99.90;;;;;;5072690;28;20028;-73
2023/02/13 04:38:46;;;;;;;1999.90;999.90;;;1.80;99.90;;;;;;5087670;28;20101;-73
2023/02/13 04:41:12;;;;;;;1999.90;999.90;;;1.70;99.90;;;;;;5092327;28;20850;-73
2023/02/13 04:43:37;;;;;;;1999.90;999.90;;;1.70;99.90;;;;;;5092641;28;20392;-73
2023/02/13 04:46:03;;;;;;;1999.90;999.90;;;1.70;99.90;;;;;;5082616;28;20059;-73
2023/02/13 04:48:29;;;;;;;1999.90;999.90;;;1.60;99.90;;;;;;5072290;28;20469;-73
2023/02/13 04:50:55;;;;;;;1999.90;999.90;;;1.60;99.90;;;;;;5071964;28;20020;-73
2023/02/13 04:53:20;;;;;;;1999.90;999.90;;;1.60;99.90;;;;;;5072172;28;20392;-73
2023/02/13 04:55:46;;;;;;;1999.90;999.90;;;1.50;99.90;;;;;;5072324;28;20025;-73
2023/02/13 04:58:12;;;;;;;1999.90;999.90;;;1.50;99.90;;;;;;5072398;28;20036;-81
2023/02/13 05:00:37;;;;;;;1999.90;999.90;;;1.50;99.90;;;;;;5072314;28;20028;-81
2023/02/13 05:03:10;;;;;;;1999.90;999.90;;;1.40;99.90;;;;;;5071675;28;20485;-73
2023/02/13 05:05:35;;;;;;;1999.90;999.90;;;1.40;99.90;;;;;;5071842;28;20040;-73
2023/02/13 05:08:02;;;;;;;1999.90;999.90;;;1.40;99.90;;;;;;5072287;28;20298;-73
2023/02/13 05:10:28;;;;;;;1999.90;999.90;;;1.30;99.90;;;;;;5072266;28;20016;-73
2023/02/13 05:12:54;;;;;;;1999.90;999.90;;;1.30;99.90;;;;;;5072041;28;20036;-80
2023/02/13 05:15:21;;;;;;;1999.90;999.90;;;1.20;99.90;;;;;;5072013;28;20029;-73
2023/02/13 05:17:47;;;;;;;1999.90;999.90;;;1.20;99.90;;;;;;5071405;28;20116;-73
2023/02/13 05:20:13;;;;;;;1999.90;999.90;;;1.20;99.90;;;;;;5072185;28;20520;-73
2023/02/13 05:25:32;;;;;;;1999.90;999.90;;;1.30;99.90;;;;;;5071616;28;20408;-80
2023/02/13 05:27:57;;;;;;;1999.90;999.90;;;1.30;99.90;;;;;;5054218;28;20452;-73
2023/02/13 05:30:23;;;;;;;1999.90;999.90;;;1.20;99.90;;;;;;5069250;28;20096;-73
2023/02/13 05:32:50;;;;;;;1999.90;999.90;;;1.20;99.90;;;;;;5051837;28;20055;-81
2023/02/13 05:35:17;;;;;;;1999.90;999.90;;;1.20;99.90;;;;;;5051371;28;20021;-72
2023/02/13 05:37:43;;;;;;;1999.90;999.90;;;1.20;99.90;;;;;;5083275;28;20773;-81
2023/02/13 05:40:10;;;;;;;1999.90;999.90;;;1.30;99.90;;;;;;5053813;28;20055;-73
2023/02/13 05:42:36;;;;;;;1999.90;999.90;;;1.30;99.90;;;;;;5070556;28;20037;-73
2023/02/13 05:45:02;;;;;;;1999.90;999.90;;;1.30;99.90;;;;;;5075816;28;20098;-73
2023/02/13 05:47:27;;;;;;;1999.90;999.90;;;1.30;99.90;;;;;;5091809;28;20028;-73
2023/02/13 05:49:53;;;;;;;1999.90;999.90;;;1.40;99.90;;;;;;5091927;28;20096;-81
2023/02/13 05:52:18;;;;;;;1999.90;999.90;;;1.40;99.90;;;;;;5090403;28;20454;-81
2023/02/13 05:54:44;;;;;;;1999.90;999.90;;;1.40;99.90;;;;;;5091699;28;20202;-73
2023/02/13 05:57:10;;;;;;;1999.90;999.90;;;1.30;99.90;;;;;;5091657;28;20432;-73
2023/02/13 05:59:35;;;;;;;1999.90;999.90;;;1.40;99.90;;;;;;5090225;28;20435;-73
2023/02/13 06:02:01;;;;;;;1999.90;999.90;;;1.40;99.90;;;;;;5091856;28;20031;-80
2023/02/13 06:04:27;;;;;;;1999.90;999.90;;;1.60;99.90;;;;;;5091804;28;20106;-81
2023/02/13 06:06:52;;;;;;;1999.90;999.90;;;1.80;99.90;;;;;;5091315;28;20198;-79
2023/02/13 06:09:18;;;;;;;1999.90;999.90;;;1.90;99.90;;;;;;5091463;28;20028;-73
2023/02/13 06:11:43;;;;;;;1999.90;999.90;;;2.00;99.90;;;;;;5091363;28;20396;-73
2023/02/13 06:14:10;;;;;;;1999.90;999.90;;;2.00;99.90;;;;;;5091625;28;20028;-73
2023/02/13 06:16:35;;;;;;;1999.90;999.90;;;2.10;99.90;;;;;;5094501;28;20051;-80
2023/02/13 06:19:01;;;;;;;1999.90;999.90;;;2.10;99.90;;;;;;5095067;28;20052;-80
2023/02/13 06:21:27;;;;;;;1999.90;999.90;;;2.00;99.90;;;;;;5094770;28;20085;-73
2023/02/13 06:23:53;;;;;;;1999.90;999.90;;;2.00;99.90;;;;;;5093642;28;20107;-73
2023/02/13 06:26:19;;;;;;;1999.90;999.90;;;2.00;99.90;;;;;;5095240;28;20514;-73
2023/02/13 06:28:44;;;;;;;1999.90;999.90;;;2.10;99.90;;;;;;5094921;28;20028;-81
2023/02/13 06:31:10;;;;;;;1999.90;999.90;;;2.10;99.90;;;;;;5086309;28;20019;-73
2023/02/13 06:33:35;;;;;;;1999.90;999.90;;;2.20;99.90;;;;;;5087382;28;20482;-73
2023/02/13 06:36:01;;;;;;;1999.90;999.90;;;2.20;99.90;;;;;;5082580;28;20032;-73
2023/02/13 06:38:27;;;;;;;1999.90;999.90;;;2.20;99.90;;;;;;5088565;28;20060;-73
2023/02/13 06:40:57;;;;;;;1999.90;999.90;;;2.20;99.90;;;;;;5087476;28;20035;-80
2023/02/13 06:43:23;;;;;;;1999.90;999.90;;;2.20;99.90;;;;;;5094393;28;20032;-73
2023/02/13 06:45:50;;;;;;;1999.90;999.90;;;2.20;99.90;;;;;;5102200;28;20058;-72
2023/02/13 06:48:16;;;;;;;1999.90;999.90;;;2.20;99.90;;;;;;5102506;28;20373;-81
2023/02/13 06:50:41;;;;;;;1999.90;999.90;;;2.20;99.90;;;;;;5093360;28;20058;-81
2023/02/13 06:53:07;;;;;;;1999.90;999.90;;;2.20;99.90;;;;;;5094915;28;20028;-80
2023/02/13 06:55:33;;;;;;;1999.90;999.90;;;2.20;99.90;;;;;;5094391;28;20028;-73
2023/02/13 06:57:58;;;;;;;1999.90;999.90;;;2.20;99.90;;;;;;5090426;28;20024;-73
2023/02/13 07:00:25;;;;;;;1999.90;999.90;;;2.20;99.90;;;;;;5095298;28;20471;-78
2023/02/13 07:02:51;;;;;;;1999.90;999.90;;;2.30;99.90;;;;;;5072890;28;20027;-78
2023/02/13 07:05:16;;;;;;;1999.90;999.90;;;2.30;99.90;;;;;;5090332;28;20048;-79
2023/02/13 07:07:42;;;;;;;1999.90;999.90;;;2.30;99.90;;;;;;5097700;28;20427;-72
2023/02/13 07:10:11;;;;;;;1999.90;999.90;;;2.30;99.90;;;;;;5091260;28;20480;-72
2023/02/13 07:12:37;;;;;;;1999.90;999.90;;;2.30;99.90;;;;;;5091249;28;20499;-81
2023/02/13 07:15:04;;;;;;;1999.90;999.90;;;2.20;99.90;;;;;;5095998;28;20472;-80
2023/02/13 07:17:30;;;;;;;1999.90;999.90;;;2.20;99.90;;;;;;5083763;28;20037;-81
2023/02/13 07:19:56;;;;;;;1999.90;999.90;;;2.20;99.90;;;;;;5089589;28;20431;-81
2023/02/13 07:22:22;;;;;;;1999.90;999.90;;;2.20;99.90;;;;;;5095726;28;20028;-73
2023/02/13 07:24:47;;;;;;;1999.90;999.90;;;2.20;99.90;;;;;;5092837;28;20034;-73
2023/02/13 07:27:13;;;;;;;1999.90;999.90;;;2.10;99.90;;;;;;5095174;28;20028;-81
2023/02/13 07:29:39;;;;;;;1999.90;999.90;;;2.10;99.90;;;;;;5086512;28;20043;-80
2023/02/13 07:32:05;;;;;;;1999.90;999.90;;;2.20;99.90;;;;;;5088706;28;20035;-73
2023/02/13 07:34:32;;;;;;;1999.90;999.90;;;2.20;99.90;;;;;;5089189;28;20028;-80
2023/02/13 07:36:57;;;;;;;1999.90;999.90;;;2.10;99.90;;;;;;5085979;28;20023;-73
2023/02/13 07:39:23;;;;;;;1999.90;999.90;;;2.20;99.90;;;;;;5090201;28;20476;-79
2023/02/13 07:41:49;;;;;;;1999.90;999.90;;;2.20;99.90;;;;;;5087482;28;20028;-79
2023/02/13 07:44:15;;;;;;;1999.90;999.90;;;2.20;99.90;;;;;;5095064;28;20024;-80
2023/02/13 07:46:40;;;;;;;1999.90;999.90;;;2.30;99.90;;;;;;5084696;28;20547;-81
2023/02/13 07:49:06;;;;;;;1999.90;999.90;;;2.30;99.90;;;;;;5083026;28;20069;-73
2023/02/13 07:51:31;;;;;;;1999.90;999.90;;;2.40;99.90;;;;;;5083089;28;20388;-81
2023/02/13 07:53:57;;;;;;;1999.90;999.90;;;2.40;99.90;;;;;;5087374;28;20048;-76
2023/02/13 07:56:23;;;;;;;1999.90;999.90;;;2.50;99.90;;;;;;5096611;28;20024;-73
2023/02/13 07:58:48;;;;;;;1999.90;999.90;;;2.50;99.90;;;;;;5095735;28;20023;-81
2023/02/13 08:01:15;;;;;;;1999.90;999.90;;;2.60;99.90;;;;;;5083260;28;20029;-73
2023/02/13 08:03:41;;;;;;;1999.90;999.90;;;2.70;99.90;;;;;;5083374;28;20040;-73
2023/02/13 08:06:07;;;;;;;1999.90;999.90;;;2.70;99.90;;;;;;5091975;28;20035;-80
2023/02/13 08:08:34;;;;;;;1999.90;999.90;;;2.80;99.90;;;;;;5086003;28;20143;-81
2023/02/13 08:13:55;;;;;;;1999.90;999.90;;;3.00;99.90;;;;;;5086264;28;20042;-73
2023/02/13 08:16:21;;;;;;;1999.90;999.90;;;3.10;99.90;;;;;;5080772;28;20024;-73
2023/02/13 08:18:46;;;;;;;1999.90;999.90;;;3.30;99.90;;;;;;5080938;28;20044;-82
2023/02/13 08:21:14;;;;;;;1999.90;999.90;;;3.50;99.90;;;;;;5083380;28;20035;-81
2023/02/13 08:23:39;;;;;;;1999.90;999.90;;;3.80;99.90;;;;;;5079334;28;20080;-80
2023/02/13 08:26:05;;;;;;;1999.90;999.90;;;4.90;99.90;;;;;;5086961;28;20016;-73
2023/02/13 08:28:30;;;;;;;1999.90;999.90;;;6.70;99.90;;;;;;5087966;28;20059;-74
2023/02/13 08:30:56;;;;;;;1999.90;999.90;;;7.90;99.90;;;;;;5086286;28;20079;-73
2023/02/13 08:33:22;;;;;;;1999.90;999.90;;;8.50;99.90;;;;;;5087469;28;20024;-72
2023/02/13 08:35:47;;;;;;;1999.90;999.90;;;9.30;99.90;;;;;;5087263;28;20028;-73
2023/02/13 08:38:13;;;;;;;1999.90;999.90;;;9.40;99.90;;;;;;5080906;28;20089;-80
2023/02/13 08:40:39;;;;;;;1999.90;999.90;;;8.40;99.90;;;;;;5088771;28;20388;-72
2023/02/13 08:43:05;;;;;;;1999.90;999.90;;;6.80;99.90;;;;;;5083318;28;20641;-80
2023/02/13 08:45:31;;;;;;;1999.90;999.90;;;6.10;99.90;;;;;;5085701;28;20055;-79
2023/02/13 08:47:58;;;;;;;1999.90;999.90;;;5.70;99.90;;;;;;5088778;28;20173;-75
2023/02/13 08:50:25;;;;;;;1999.90;999.90;;;5.50;99.90;;;;;;5070854;28;20031;-79
2023/02/13 08:52:51;;;;;;;1999.90;999.90;;;5.50;99.90;;;;;;5084035;28;20089;-72
2023/02/13 08:55:17;;;;;;;1999.90;999.90;;;5.60;99.90;;;;;;5084843;28;20203;-73
2023/02/13 08:57:42;;;;;;;1999.90;999.90;;;6.40;99.90;;;;;;5085451;28;20143;-80
2023/02/13 09:00:08;;;;;;;1999.90;999.90;;;7.20;99.90;;;;;;5089416;28;20060;-73
2023/02/13 09:02:34;;;;;;;1999.90;999.90;;;7.10;99.90;;;;;;5086529;28;20028;-80
2023/02/13 09:04:59;;;;;;;1999.90;999.90;;;7.10;99.90;;;;;;5087062;28;20036;-73
2023/02/13 09:07:25;;;;;;;1999.90;999.90;;;7.10;99.90;;;;;;5082186;28;20389;-80
2023/02/13 09:09:51;;;;;;;1999.90;999.90;;;7.00;99.90;;;;;;5086061;28;20119;-80
2023/02/13 09:12:16;;;;;;;1999.90;999.90;;;6.60;99.90;;;;;;5087208;28;20408;-80
2023/02/13 09:14:42;;;;;;;1999.90;999.90;;;6.60;99.90;;;;;;5086809;28;20404;-81
2023/02/13 09:17:08;;;;;;;1999.90;999.90;;;6.60;99.90;;;;;;5087337;28;20028;-72
2023/02/13 09:19:33;;;;;;;1999.90;999.90;;;6.50;99.90;;;;;;5100919;28;20033;-81
2023/02/13 09:21:59;;;;;;;1999.90;999.90;;;6.60;99.90;;;;;;5086623;28;20024;-73
2023/02/13 09:24:25;;;;;;;1999.90;999.90;;;6.80;99.90;;;;;;5083312;28;20436;-73
2023/02/13 09:26:50;;;;;;;1999.90;999.90;;;7.00;99.90;;;;;;5085306;28;20052;-81
2023/02/13 09:29:16;;;;;;;1999.90;999.90;;;7.30;99.90;;;;;;5081506;28;20020;-72
2023/02/13 09:31:42;;;;;;;1999.90;999.90;;;7.20;99.90;;;;;;5080428;28;20024;-72
2023/02/13 09:34:07;;;;;;;1999.90;999.90;;;7.10;99.90;;;;;;5087947;28;20016;-73
2023/02/13 09:36:35;;;;;;;1999.90;999.90;;;7.20;99.90;;;;;;5080547;28;20694;-81
2023/02/13 09:39:01;;;;;;;1999.90;999.90;;;7.60;99.90;;;;;;5080406;28;20061;-81
2023/02/13 09:41:39;;;;;;;1999.90;999.90;;;8.10;99.90;;;;;;5080083;28;20108;-81
2023/02/13 09:44:37;;;;;;;1999.90;999.90;;;9.20;99.90;;;;;;5081858;28;20116;-74
2023/02/13 09:47:20;;;;;;;1999.90;999.90;;;9.30;99.90;;;;;;5083720;28;20027;-74
2023/02/13 09:49:53;;;;;;;1999.90;999.90;;;9.10;99.90;;;;;;5083394;28;20563;-72
2023/02/13 09:52:19;;;;;;;1999.90;999.90;;;8.80;99.90;;;;;;5086269;28;20109;-73
2023/02/13 09:54:44;;;;;;;1999.90;999.90;;;8.80;99.90;;;;;;5086121;28;20064;-77
2023/02/13 09:57:24;;;;;;;1999.90;999.90;;;9.00;99.90;;;;;;5085944;28;20100;-76
2023/02/13 10:00:10;;;;;;;1999.90;999.90;;;9.00;99.90;;;;;;5080143;28;20036;-73
2023/02/13 10:02:57;;;;;;;1999.90;999.90;;;8.90;99.90;;;;;;5089766;28;20066;-73
2023/02/13 10:05:31;;;;;;;1999.90;999.90;;;8.80;99.90;;;;;;5094660;28;20115;-81
2023/02/13 10:08:17;;;;;;;1999.90;999.90;;;8.80;99.90;;;;;;5092424;28;20170;-82
2023/02/13 10:11:07;;;;;;;1999.90;999.90;;;8.80;99.90;;;;;;5063832;28;20036;-72
2023/02/13 10:14:11;;;;;;;1999.90;999.90;;;9.00;99.90;;;;;;5066361;28;20020;-76
2023/02/13 10:17:05;;;;;;;1999.90;999.90;;;9.00;99.90;;;;;;5079176;28;20039;-82
2023/02/13 10:19:40;;;;;;;1999.90;999.90;;;9.10;99.90;;;;;;5098704;28;21650;-81
2023/02/13 10:22:19;;;;;;;1999.90;999.90;;;9.20;99.90;;;;;;5090118;28;20115;-73
2023/02/13 10:24:51;;;;;;;1999.90;999.90;;;9.30;99.90;;;;;;5076522;28;20032;-73
2023/02/13 10:27:27;;;;;;;1999.90;999.90;;;9.40;99.90;;;;;;5078746;28;20539;-82
2023/02/13 10:30:11;;;;;;;1999.90;999.90;;;9.50;99.90;;;;;;5087491;28;20028;-82
2023/02/13 10:33:20;;;;;;;1999.90;999.90;;;9.50;99.90;;;;;;5085771;28;20032;-77
2023/02/13 10:36:04;;;;;;;1999.90;999.90;;;9.60;99.90;;;;;;5086310;28;20032;-73
2023/02/13 10:38:33;;;;;;;1999.90;999.90;;;10.00;99.90;;;;;;5083086;28;20031;-79
2023/02/13 10:41:33;;;;;;;1999.90;999.90;;;10.10;99.90;;;;;;5085296;28;20048;-81
2023/02/13 10:44:22;;;;;;;1999.90;999.90;;;10.10;99.90;;;;;;5080691;28;20035;-73
2023/02/13 10:47:41;;;;;;;1999.90;999.90;;;10.20;99.90;;;;;;5086426;28;20047;-81
2023/02/13 10:50:28;;;;;;;1999.90;999.90;;;10.40;99.90;;;;;;5076882;28;20043;-73
2023/02/13 10:53:10;;;;;;;1999.90;999.90;;;10.30;99.90;;;;;;5087744;28;20015;-81
2023/02/13 10:55:42;;;;;;;1999.90;999.90;;;10.30;99.90;;;;;;5079769;28;20554;-81
2023/02/13 10:58:32;;;;;;;1999.90;999.90;;;10.40;99.90;;;;;;5083051;28;20081;-81
2023/02/13 11:01:12;;;;;;;1999.90;999.90;;;10.50;99.90;;;;;;5083026;28;20043;-80
2023/02/13 11:03:38;;;;;;;1999.90;999.90;;;10.60;99.90;;;;;;5063522;28;20028;-73
2023/02/13 11:06:11;;;;;;;1999.90;999.90;;;10.80;99.90;;;;;;5085370;28;20082;-76
2023/02/13 11:08:44;;;;;;;1999.90;999.90;;;10.80;99.90;;;;;;5088412;28;20527;-79
2023/02/13 11:11:33;;;;;;;1999.90;999.90;;;10.90;99.90;;;;;;5091535;28;20487;-79
2023/02/13 11:14:15;;;;;;;1999.90;999.90;;;11.10;99.90;;;;;;5088894;28;20078;-81
2023/02/13 11:17:05;;;;;;;1999.90;999.90;;;11.20;99.90;;;;;;5074627;28;20028;-79
2023/02/13 11:19:45;;;;;;;1999.90;999.90;;;11.30;99.90;;;;;;5085455;28;20023;-73
2023/02/13 11:22:26;;;;;;;1999.90;999.90;;;11.30;99.90;;;;;;5085777;28;20035;-79
2023/02/13 11:24:58;;;;;;;1999.90;999.90;;;11.40;99.90;;;;;;5086271;28;20031;-80
2023/02/13 11:27:31;;;;;;;1999.90;999.90;;;11.50;99.90;;;;;;5072402;28;20081;-73
2023/02/13 11:30:01;;;;;;;1999.90;999.90;;;11.90;99.90;;;;;;5092294;28;20028;-73
2023/02/13 11:32:34;;;;;;;1999.90;999.90;;;11.90;99.90;;;;;;5085987;28;20055;-82
2023/02/13 11:35:31;;;;;;;1999.90;999.90;;;12.10;99.90;;;;;;5088160;28;20020;-80
2023/02/13 11:38:15;;;;;;;1999.90;999.90;;;12.20;99.90;;;;;;5080798;28;20048;-78
2023/02/13 11:40:43;;;;;;;1999.90;999.90;;;12.10;99.90;;;;;;5092054;28;20028;-73
2023/02/13 11:43:24;;;;;;;1999.90;999.90;;;12.30;99.90;;;;;;5093227;28;20063;-79
2023/02/13 11:46:02;;;;;;;1999.90;999.90;;;12.40;99.90;;;;;;5088512;28;20051;-79
2023/02/13 11:48:28;;;;;;;1999.90;999.90;;;12.40;99.90;;;;;;5092537;28;20102;-78
2023/02/13 11:50:57;;;;;;;1999.90;999.90;;;12.60;99.90;;;;;;5089728;28;21016;-80
2023/02/13 11:53:26;;;;;;;1999.90;999.90;;;12.50;99.90;;;;;;5093458;28;20036;-75
2023/02/13 11:56:09;;;;;;;1999.90;999.90;;;12.70;99.90;;;;;;5092611;28;20035;-74
2023/02/13 11:58:35;;;;;;;1999.90;999.90;;;12.80;99.90;;;;;;5092305;28;20024;-81
2023/02/13 12:01:28;;;;;;;1999.90;999.90;;;12.90;99.90;;;;;;5095953;28;20028;-79
2023/02/13 12:04:17;;;;;;;1999.90;999.90;;;13.00;99.90;;;;;;5085388;28;20057;-81
2023/02/13 12:07:12;;;;;;;1999.90;999.90;;;13.20;99.90;;;;;;5101139;28;20107;-73
2023/02/13 12:09:40;;;;;;;1999.90;999.90;;;13.40;99.90;;;;;;5087055;28;20059;-72
2023/02/13 12:12:09;;;;;;;1999.90;999.90;;;13.20;99.90;;;;;;5095049;28;20042;-79
2023/02/13 12:14:43;;;;;;;1999.90;999.90;;;13.50;99.90;;;;;;5082597;28;20028;-79
2023/02/13 12:17:16;;;;;;;1999.90;999.90;;;13.60;99.90;;;;;;5090456;28;20069;-80
2023/02/13 12:19:48;;;;;;;1999.90;999.90;;;13.80;99.90;;;;;;5093699;28;20039;-83
2023/02/13 12:22:28;;;;;;;1999.90;999.90;;;14.00;99.90;;;;;;5092668;28;20166;-73
2023/02/13 12:25:09;;;;;;;1999.90;999.90;;;14.10;99.90;;;;;;5093453;28;20020;-76
2023/02/13 12:27:55;;;;;;;1999.90;999.90;;;14.30;99.90;;;;;;5095495;28;20036;-80
2023/02/13 12:30:43;;;;;;;1999.90;999.90;;;14.20;99.90;;;;;;5088879;28;20098;-78
2023/02/13 12:33:24;;;;;;;1999.90;999.90;;;14.20;99.90;;;;;;5086569;28;20488;-78
2023/02/13 12:36:17;;;;;;;1999.90;999.90;;;14.30;99.90;;;;;;5087964;28;20037;-78
2023/02/13 12:39:20;;;;;;;1999.90;999.90;;;14.40;99.90;;;;;;5084561;28;20035;-81
2023/02/13 12:42:18;;;;;;;1999.90;999.90;;;14.50;99.90;;;;;;5092943;28;20529;-81
2023/02/13 12:44:54;;;;;;;1999.90;999.90;;;14.80;99.90;;;;;;5061963;28;20503;-80
2023/02/13 12:47:37;;;;;;;1999.90;999.90;;;14.70;99.90;;;;;;5090758;28;20039;-73
2023/02/13 12:50:21;;;;;;;1999.90;999.90;;;14.80;99.90;;;;;;5086325;28;20568;-80
2023/02/13 12:53:15;;;;;;;1999.90;999.90;;;14.90;99.90;;;;;;5083269;28;20035;-81
2023/02/13 12:56:17;;;;;;;1999.90;999.90;;;15.10;99.90;;;;;;5074682;28;20115;-78
2023/02/13 12:58:54;;;;;;;1999.90;999.90;;;15.10;99.90;;;;;;5080736;28;20496;-75
2023/02/13 13:01:23;;;;;;;1999.90;999.90;;;15.00;99.90;;;;;;5084448;28;20051;-73
2023/02/13 13:04:06;;;;;;;1999.90;999.90;;;15.10;99.90;;;;;;5080670;28;20029;-81
2023/02/13 13:06:40;;;;;;;1999.90;999.90;;;15.20;99.90;;;;;;5081164;28;20039;-81
2023/02/13 13:09:27;;;;;;;1999.90;999.90;;;15.50;99.90;;;;;;5081246;28;20122;-80
2023/02/13 13:12:21;;;;;;;1999.90;999.90;;;15.50;99.90;;;;;;5084417;28;20032;-74